createdAt,value
2016-04-11T00:00:07.302Z,18.19
2016-04-11T00:01:07.429Z,18.1
2016-04-11T00:02:07.354Z,18
2016-04-11T00:03:07.482Z,18.1
2016-04-11T00:04:07.594Z,18
2016-04-11T00:05:07.503Z,18.19
2016-04-11T00:06:07.489Z,18.1
2016-04-11T00:07:07.587Z,18.1
2016-04-11T00:08:07.558Z,18.19
2016-04-11T00:09:07.858Z,18
2016-04-11T00:10:07.579Z,18
2016-04-11T00:11:07.692Z,18
2016-04-11T00:12:07.647Z,17.71
2016-04-11T00:13:07.711Z,18.1
2016-04-11T00:14:07.683Z,18
2016-04-11T00:15:07.796Z,17.81
2016-04-11T00:16:07.034Z,17.81
2016-04-11T00:17:07.833Z,17.52
2016-04-11T00:18:07.804Z,18.1
2016-04-11T00:19:08.026Z,17.81
2016-04-11T00:20:07.873Z,17.71
2016-04-11T00:21:07.937Z,17.52
2016-04-11T00:22:07.925Z,18
2016-04-11T00:23:07.990Z,17.61
2016-04-11T00:24:07.961Z,17.61
2016-04-11T00:25:08.042Z,17.61
2016-04-11T00:26:08.029Z,17.52
2016-04-11T00:27:08.110Z,17.52
2016-04-11T00:28:08.081Z,17.61
2016-04-11T00:29:08.225Z,17.52
2016-04-11T00:30:08.133Z,17.52
2016-04-11T00:31:08.230Z,17.9
2016-04-11T00:32:08.202Z,17.9
2016-04-11T00:33:08.292Z,17.61
2016-04-11T00:34:08.239Z,17.61
2016-04-11T00:35:08.726Z,17.61
2016-04-11T00:36:08.764Z,17.61
2016-04-11T00:37:08.502Z,17.9
2016-04-11T00:38:08.349Z,17.81
2016-04-11T00:39:08.430Z,17.9
2016-04-11T00:40:08.432Z,17.52
2016-04-11T00:41:08.466Z,17.81
2016-04-11T00:42:08.468Z,17.71
2016-04-11T00:43:08.596Z,17.9
2016-04-11T00:44:08.505Z,17.61
2016-04-11T00:45:08.602Z,17.71
2016-04-11T00:46:08.573Z,17.81
2016-04-11T00:47:08.498Z,17.71
2016-04-11T00:48:08.641Z,17.9
2016-04-11T00:49:08.691Z,17.71
2016-04-11T00:50:08.693Z,17.81
2016-04-11T00:51:08.743Z,17.81
2016-04-11T00:52:08.730Z,17.9
2016-04-11T00:53:08.780Z,17.71
2016-04-11T00:54:08.798Z,17.61
2016-04-11T00:55:08.817Z,17.72
2016-04-11T00:56:08.881Z,17.61
2016-04-11T00:57:08.900Z,17.61
2016-04-11T00:58:08.903Z,17.71
2016-04-11T00:59:09.014Z,17.81
2016-04-11T01:00:08.955Z,17.71
2016-04-11T01:01:08.989Z,17.71
2016-04-11T01:02:09.006Z,17.61
2016-04-11T01:03:09.041Z,17.81
2016-04-11T01:04:09.058Z,17.71
2016-04-11T01:05:09.093Z,17.61
2016-04-11T01:06:09.127Z,17.81
2016-04-11T01:07:09.145Z,17.71
2016-04-11T01:08:09.180Z,17.71
2016-04-11T01:09:09.276Z,17.71
2016-04-11T01:10:09.221Z,17.9
2016-04-11T01:11:09.255Z,17.81
2016-04-11T01:12:09.304Z,17.81
2016-04-11T01:13:09.323Z,17.9
2016-04-11T01:14:09.341Z,17.52
2016-04-11T01:15:09.374Z,17.61
2016-04-11T01:16:09.394Z,17.81
2016-04-11T01:17:09.427Z,17.81
2016-04-11T01:18:09.462Z,17.9
2016-04-11T01:19:09.526Z,17.9
2016-04-11T01:20:09.529Z,17.61
2016-04-11T01:21:09.532Z,17.81
2016-04-11T01:22:09.565Z,17.9
2016-04-11T01:23:09.584Z,17.81
2016-04-11T01:24:09.617Z,17.81
2016-04-11T01:25:09.651Z,17.9
2016-04-11T01:26:09.686Z,17.61
2016-04-11T01:27:09.704Z,18
2016-04-11T01:28:09.738Z,17.71
2016-04-11T01:29:09.756Z,17.71
2016-04-11T01:30:09.806Z,17.81
2016-04-11T01:31:09.824Z,17.61
2016-04-11T01:32:09.842Z,17.71
2016-04-11T01:33:09.892Z,17.71
2016-04-11T01:34:09.911Z,17.81
2016-04-11T01:35:09.928Z,17.61
2016-04-11T01:36:09.947Z,17.81
2016-04-11T01:37:09.965Z,17.71
2016-04-11T01:38:09.999Z,17.61
2016-04-11T01:39:10.033Z,17.81
2016-04-11T01:40:10.066Z,17.52
2016-04-11T01:41:10.102Z,17.71
2016-04-11T01:42:10.119Z,17.71
2016-04-11T01:43:10.138Z,17.61
2016-04-11T01:44:10.171Z,17.81
2016-04-11T01:45:10.205Z,17.42
2016-04-11T01:46:10.240Z,17.71
2016-04-11T01:47:10.258Z,17.42
2016-04-11T01:48:10.276Z,17.71
2016-04-11T01:49:10.310Z,17.61
2016-04-11T01:50:10.343Z,17.61
2016-04-11T01:51:10.362Z,17.42
2016-04-11T01:52:10.396Z,17.71
2016-04-11T01:53:10.415Z,17.71
2016-04-11T01:54:10.465Z,17.81
2016-04-11T01:55:10.498Z,17.71
2016-04-11T01:56:10.501Z,17.42
2016-04-11T01:57:10.566Z,17.71
2016-04-11T01:58:10.553Z,17.42
2016-04-11T01:59:10.587Z,17.52
2016-04-11T02:00:10.636Z,17.81
2016-04-11T02:01:10.639Z,17.61
2016-04-11T02:02:10.672Z,17.81
2016-04-11T02:03:10.691Z,17.71
2016-04-11T02:04:10.725Z,17.81
2016-04-11T02:05:10.744Z,17.42
2016-04-11T02:06:10.793Z,17.61
2016-04-11T02:07:10.812Z,17.42
2016-04-11T02:08:10.846Z,17.71
2016-04-11T02:09:10.864Z,17.71
2016-04-11T02:10:10.897Z,17.71
2016-04-11T02:11:10.916Z,17.71
2016-04-11T02:12:11.107Z,17.71
2016-04-11T02:13:10.968Z,17.42
2016-04-11T02:14:11.002Z,17.42
2016-04-11T02:15:11.067Z,17.42
2016-04-11T02:16:11.071Z,17.52
2016-04-11T02:17:11.088Z,17.42
2016-04-11T02:18:11.123Z,17.52
2016-04-11T02:19:11.140Z,17.61
2016-04-11T02:20:11.175Z,17.71
2016-04-11T02:21:11.209Z,17.81
2016-04-11T02:22:11.226Z,17.42
2016-04-11T02:23:11.261Z,18
2016-04-11T02:24:11.295Z,17.71
2016-04-11T02:25:11.298Z,17.71
2016-04-11T02:26:11.362Z,17.81
2016-04-11T02:27:11.397Z,17.81
2016-04-11T02:28:11.383Z,17.81
2016-04-11T02:29:11.417Z,17.71
2016-04-11T02:30:11.436Z,17.61
2016-04-11T02:31:11.470Z,17.71
2016-04-11T02:32:11.503Z,17.81
2016-04-11T02:33:11.539Z,17.81
2016-04-11T02:34:11.572Z,17.81
2016-04-11T02:35:11.575Z,17.71
2016-04-11T02:36:11.608Z,17.71
2016-04-11T02:37:11.642Z,17.81
2016-04-11T02:38:11.661Z,17.61
2016-04-11T02:39:11.695Z,17.71
2016-04-11T02:40:11.728Z,17.81
2016-04-11T02:41:11.747Z,18
2016-04-11T02:42:11.812Z,17.81
2016-04-11T02:43:11.815Z,17.61
2016-04-11T02:44:11.832Z,17.71
2016-04-11T02:45:11.898Z,17.61
2016-04-11T02:46:11.885Z,17.71
2016-04-11T02:47:11.919Z,17.61
2016-04-11T02:48:11.938Z,17.81
2016-04-11T02:49:11.971Z,17.81
2016-04-11T02:50:11.989Z,17.61
2016-04-11T02:51:12.039Z,17.61
2016-04-11T02:52:12.057Z,17.71
2016-04-11T02:53:12.092Z,18
2016-04-11T02:54:12.109Z,17.81
2016-04-11T02:55:12.128Z,17.81
2016-04-11T02:56:12.177Z,17.71
2016-04-11T02:57:12.196Z,17.81
2016-04-11T02:58:12.230Z,17.52
2016-04-11T02:59:12.248Z,17.9
2016-04-11T03:00:12.282Z,17.9
2016-04-11T03:01:12.301Z,17.81
2016-04-11T03:02:12.334Z,17.9
2016-04-11T03:03:12.352Z,17.9
2016-04-11T03:04:12.386Z,17.61
2016-04-11T03:05:12.420Z,17.61
2016-04-11T03:06:12.455Z,17.9
2016-04-11T03:07:12.488Z,17.61
2016-04-11T03:08:12.522Z,17.52
2016-04-11T03:09:12.602Z,17.9
2016-04-11T03:10:12.543Z,17.9
2016-04-11T03:11:12.577Z,17.61
2016-04-11T03:12:12.643Z,17.81
2016-04-11T03:13:12.629Z,17.9
2016-04-11T03:14:12.664Z,17.9
2016-04-11T03:15:12.697Z,17.9
2016-04-11T03:16:12.700Z,17.81
2016-04-11T03:17:12.734Z,17.9
2016-04-11T03:18:12.768Z,17.61
2016-04-11T03:19:12.802Z,17.61
2016-04-11T03:20:12.820Z,17.9
2016-04-11T03:21:12.854Z,17.61
2016-04-11T03:22:12.904Z,17.9
2016-04-11T03:23:12.937Z,17.9
2016-04-11T03:24:12.940Z,17.81
2016-04-11T03:25:12.959Z,17.9
2016-04-11T03:26:12.992Z,17.61
2016-04-11T03:27:13.042Z,17.61
2016-04-11T03:28:13.061Z,17.52
2016-04-11T03:29:13.079Z,17.61
2016-04-11T03:30:13.112Z,17.52
2016-04-11T03:31:13.131Z,17.61
2016-04-11T03:32:13.149Z,17.52
2016-04-11T03:33:13.183Z,17.71
2016-04-11T03:34:13.217Z,17.52
2016-04-11T03:35:13.251Z,17.61
2016-04-11T03:36:13.269Z,17.61
2016-04-11T03:37:13.288Z,17.61
2016-04-11T03:38:13.321Z,17.52
2016-04-11T03:39:13.356Z,17.61
2016-04-11T03:40:13.389Z,17.52
2016-04-11T03:41:13.408Z,17.9
2016-04-11T03:42:13.442Z,17.52
2016-04-11T03:43:13.461Z,17.52
2016-04-11T03:44:13.479Z,17.81
2016-04-11T03:45:13.513Z,17.52
2016-04-11T03:46:13.577Z,17.52
2016-04-11T03:47:13.565Z,17.61
2016-04-11T03:48:13.630Z,17.81
2016-04-11T03:49:13.633Z,17.81
2016-04-11T03:50:13.651Z,17.71
2016-04-11T03:51:13.701Z,17.61
2016-04-11T03:52:13.718Z,17.52
2016-04-11T03:53:13.737Z,17.61
2016-04-11T03:54:13.756Z,17.52
2016-04-11T03:55:13.789Z,17.52
2016-04-11T03:56:13.823Z,18
2016-04-11T03:57:13.857Z,17.9
2016-04-11T03:58:13.876Z,18.1
2016-04-11T03:59:13.909Z,18.1
2016-04-11T04:00:13.928Z,18
2016-04-11T04:01:13.961Z,18.19
2016-04-11T04:02:14.012Z,18
2016-04-11T04:03:14.030Z,18
2016-04-11T04:04:14.048Z,18.19
2016-04-11T04:05:14.097Z,17.61
2016-04-11T04:06:14.100Z,18.1
2016-04-11T04:07:14.149Z,18.19
2016-04-11T04:08:14.169Z,18
2016-04-11T04:09:14.186Z,18.19
2016-04-11T04:10:14.220Z,18.1
2016-04-11T04:11:14.238Z,18
2016-04-11T04:12:45.664Z,18
2016-04-11T04:13:14.291Z,18
2016-04-11T04:14:14.310Z,18
2016-04-11T04:15:14.358Z,18.1
2016-04-11T04:16:14.361Z,18.1
2016-04-11T04:17:14.396Z,18.1
2016-04-11T04:18:14.430Z,18.1
2016-04-11T04:19:14.463Z,18.19
2016-04-11T04:20:14.482Z,18.19
2016-04-11T04:21:14.515Z,18
2016-04-11T04:22:14.549Z,18
2016-04-11T04:23:14.552Z,18.1
2016-04-11T04:24:14.635Z,18.1
2016-04-11T04:25:14.712Z,18.19
2016-04-11T04:26:14.791Z,18
2016-04-11T04:27:14.837Z,18.1
2016-04-11T04:28:14.931Z,18
2016-04-11T04:29:14.971Z,18.29
2016-04-11T04:30:15.005Z,18.19
2016-04-11T04:31:15.054Z,18
2016-04-11T04:32:15.105Z,18
2016-04-11T04:33:15.139Z,18.1
2016-04-11T04:34:15.180Z,18
2016-04-11T04:35:15.204Z,18
2016-04-11T04:36:15.291Z,18.19
2016-04-11T04:37:15.269Z,18.29
2016-04-11T04:38:15.324Z,18.1
2016-04-11T04:39:15.345Z,18.19
2016-04-11T04:40:15.365Z,18
2016-04-11T04:41:15.401Z,18.19
2016-04-11T04:42:15.437Z,18.39
2016-04-11T04:43:15.473Z,18.1
2016-04-11T04:44:15.477Z,18.1
2016-04-11T04:45:15.511Z,18.1
2016-04-11T04:46:15.576Z,18
2016-04-11T04:47:15.565Z,18.1
2016-04-11T04:48:15.616Z,18.19
2016-04-11T04:49:15.634Z,18.1
2016-04-11T04:50:15.653Z,18.39
2016-04-11T04:51:15.687Z,18.29
2016-04-11T04:52:15.706Z,18.49
2016-04-11T04:53:15.771Z,18.19
2016-04-11T04:54:15.774Z,18.29
2016-04-11T04:55:15.792Z,18.1
2016-04-11T04:56:15.826Z,18.29
2016-04-11T04:57:15.845Z,18.39
2016-04-11T04:58:15.879Z,18.39
2016-04-11T04:59:15.928Z,18.29
2016-04-11T05:00:15.962Z,18.39
2016-04-11T05:01:15.964Z,18.49
2016-04-11T05:02:15.984Z,18.29
2016-04-11T05:03:16.017Z,18.39
2016-04-11T05:04:16.051Z,18.29
2016-04-11T05:05:16.070Z,18.39
2016-04-11T05:06:16.103Z,18.29
2016-04-11T05:07:16.137Z,18.39
2016-04-11T05:08:16.155Z,18.29
2016-04-11T05:09:16.189Z,18.1
2016-04-11T05:10:16.223Z,18.29
2016-04-11T05:11:16.242Z,18.39
2016-04-11T05:12:16.260Z,18.29
2016-04-11T05:13:16.310Z,18.29
2016-04-11T05:14:16.343Z,18.29
2016-04-11T05:15:16.346Z,18.29
2016-04-11T05:16:16.380Z,18.39
2016-04-11T05:17:16.414Z,18.19
2016-04-11T05:18:16.432Z,18.19
2016-04-11T05:19:16.451Z,17.9
2016-04-11T05:20:16.500Z,18.39
2016-04-11T05:21:16.518Z,18.19
2016-04-11T05:22:16.537Z,18
2016-04-11T05:23:16.571Z,18.1
2016-04-11T05:24:16.604Z,18.19
2016-04-11T05:25:16.623Z,18.1
2016-04-11T05:26:16.688Z,18.19
2016-04-11T05:27:16.676Z,18.19
2016-04-11T05:28:16.710Z,18.19
2016-04-11T05:29:16.728Z,18.1
2016-04-11T05:30:16.777Z,18.19
2016-04-11T05:31:16.795Z,18.19
2016-04-11T05:32:16.829Z,18.19
2016-04-11T05:33:16.848Z,18.1
2016-04-11T05:34:16.881Z,18.29
2016-04-11T05:35:16.900Z,18.19
2016-04-11T05:36:16.934Z,18.1
2016-04-11T05:37:16.952Z,18
2016-04-11T05:38:16.986Z,18.1
2016-04-11T05:39:17.020Z,18.1
2016-04-11T05:40:17.069Z,18
2016-04-11T05:41:17.072Z,18.19
2016-04-11T05:42:17.092Z,18.19
2016-04-11T05:43:17.125Z,18.1
2016-04-11T05:44:17.159Z,18.1
2016-04-11T05:45:17.177Z,18
2016-04-11T05:46:17.211Z,18.1
2016-04-11T05:47:17.245Z,18.1
2016-04-11T05:48:17.279Z,18.29
2016-04-11T05:49:17.282Z,18.19
2016-04-11T05:50:17.346Z,18.1
2016-04-11T05:51:17.349Z,18
2016-04-11T05:52:17.368Z,18.19
2016-04-11T05:53:17.402Z,18.19
2016-04-11T05:54:17.435Z,18.1
2016-04-11T05:55:17.454Z,18
2016-04-11T05:56:17.488Z,18.1
2016-04-11T05:57:17.507Z,18
2016-04-11T05:58:17.540Z,18.19
2016-04-11T05:59:17.559Z,18.39
2016-04-11T06:00:17.608Z,18.19
2016-04-11T06:01:17.626Z,18.29
2016-04-11T06:02:17.645Z,18.39
2016-04-11T06:03:17.678Z,18.39
2016-04-11T06:04:17.697Z,18.39
2016-04-11T06:05:17.731Z,18.39
2016-04-11T06:06:17.765Z,18.1
2016-04-11T06:07:17.783Z,18.49
2016-04-11T06:08:17.818Z,18.39
2016-04-11T06:09:17.866Z,18.39
2016-04-11T06:10:17.869Z,18.39
2016-04-11T06:11:17.903Z,18.39
2016-04-11T06:12:17.922Z,18.29
2016-04-11T06:13:17.939Z,18.39
2016-04-11T06:14:18.005Z,18.39
2016-04-11T06:15:18.008Z,18.19
2016-04-11T06:16:18.042Z,18.39
2016-04-11T06:17:18.061Z,18.29
2016-04-11T06:18:18.094Z,18.29
2016-04-11T06:19:18.127Z,18.39
2016-04-11T06:20:18.147Z,18.39
2016-04-11T06:21:18.180Z,18.39
2016-04-11T06:22:18.198Z,18.29
2016-04-11T06:23:18.217Z,18.49
2016-04-11T06:24:18.266Z,18.49
2016-04-11T06:25:18.285Z,18.39
2016-04-11T06:26:18.319Z,18.29
2016-04-11T06:27:18.337Z,18.39
2016-04-11T06:28:18.355Z,18.49
2016-04-11T06:29:18.405Z,18.49
2016-04-11T06:30:18.438Z,18.29
2016-04-11T06:31:18.457Z,18.29
2016-04-11T06:32:18.491Z,18.49
2016-04-11T06:33:18.510Z,18.49
2016-04-11T06:34:18.543Z,18.49
2016-04-11T06:35:18.592Z,18.49
2016-04-11T06:36:18.612Z,18.29
2016-04-11T06:37:18.645Z,18.39
2016-04-11T06:38:18.647Z,18.39
2016-04-11T06:39:18.667Z,18.29
2016-04-11T06:40:18.700Z,18.39
2016-04-11T06:41:18.734Z,18.29
2016-04-11T06:42:18.753Z,18.49
2016-04-11T06:43:18.786Z,18.49
2016-04-11T06:44:18.805Z,18.29
2016-04-11T06:45:18.854Z,18.29
2016-04-11T06:46:18.856Z,18.49
2016-04-11T06:47:18.891Z,18.39
2016-04-11T06:48:18.925Z,18.29
2016-04-11T06:49:18.959Z,18.39
2016-04-11T06:50:18.977Z,18.49
2016-04-11T06:51:19.041Z,18.49
2016-04-11T06:52:19.045Z,18.39
2016-04-11T06:53:19.063Z,18.39
2016-04-11T06:54:19.096Z,18.49
2016-04-11T06:55:19.116Z,18.59
2016-04-11T06:56:19.133Z,18.49
2016-04-11T06:57:19.168Z,18.39
2016-04-11T06:58:19.202Z,18.39
2016-04-11T06:59:19.235Z,18.39
2016-04-11T07:00:19.254Z,18.49
2016-04-11T07:01:19.287Z,18.49
2016-04-11T07:02:19.306Z,18.49
2016-04-11T07:03:19.340Z,18.39
2016-04-11T07:04:19.390Z,18.39
2016-04-11T07:05:19.424Z,18.39
2016-04-11T07:06:19.442Z,18.39
2016-04-11T07:07:19.445Z,18.49
2016-04-11T07:08:19.479Z,18.49
2016-04-11T07:09:19.512Z,18.49
2016-04-11T07:10:19.531Z,18.39
2016-04-11T07:11:19.548Z,18.68
2016-04-11T07:12:19.583Z,18.49
2016-04-11T07:13:19.617Z,18.49
2016-04-11T07:14:19.635Z,18.49
2016-04-11T07:15:19.669Z,18.68
2016-04-11T07:16:19.687Z,18.49
2016-04-11T07:17:19.722Z,18.49
2016-04-11T07:18:19.756Z,18.59
2016-04-11T07:19:19.789Z,18.68
2016-04-11T07:20:19.808Z,18.77
2016-04-11T07:21:19.841Z,18.77
2016-04-11T07:22:19.860Z,18.68
2016-04-11T07:23:19.894Z,18.59
2016-04-11T07:24:19.912Z,18.59
2016-04-11T07:25:19.948Z,18.49
2016-04-11T07:26:19.982Z,18.68
2016-04-11T07:27:20.001Z,18.77
2016-04-11T07:28:20.018Z,18.68
2016-04-11T07:29:20.068Z,18.87
2016-04-11T07:30:20.086Z,19.07
2016-04-11T07:31:20.120Z,19.07
2016-04-11T07:32:20.155Z,18.97
2016-04-11T07:33:20.173Z,18.77
2016-04-11T07:34:20.190Z,18.97
2016-04-11T07:35:20.225Z,18.77
2016-04-11T07:36:20.275Z,18.77
2016-04-11T07:37:20.292Z,19.07
2016-04-11T07:38:20.311Z,18.87
2016-04-11T07:39:20.329Z,19.07
2016-04-11T07:40:20.379Z,19.07
2016-04-11T07:41:20.397Z,18.87
2016-04-11T07:42:20.416Z,18.77
2016-04-11T07:43:20.450Z,18.77
2016-04-11T07:44:20.467Z,18.49
2016-04-11T07:45:20.502Z,18.68
2016-04-11T07:46:20.520Z,18.49
2016-04-11T07:47:20.569Z,18.59
2016-04-11T07:48:20.589Z,18.49
2016-04-11T07:49:20.622Z,18.59
2016-04-11T07:50:20.656Z,18.49
2016-04-11T07:51:20.658Z,18.49
2016-04-11T07:52:20.692Z,18.39
2016-04-11T07:53:20.727Z,18.59
2016-04-11T07:54:20.760Z,18.68
2016-04-11T07:55:20.810Z,18.68
2016-04-11T07:56:20.797Z,18.39
2016-04-11T07:57:20.846Z,18.49
2016-04-11T07:58:20.849Z,18.49
2016-04-11T07:59:20.899Z,18.29
2016-04-11T08:00:20.948Z,18.39
2016-04-11T08:01:20.998Z,18.39
2016-04-11T08:02:20.970Z,18.49
2016-04-11T08:03:21.004Z,18.49
2016-04-11T08:04:21.021Z,18.87
2016-04-11T08:05:21.040Z,18.39
2016-04-11T08:06:21.073Z,18.68
2016-04-11T08:07:21.108Z,18.87
2016-04-11T08:08:21.126Z,18.77
2016-04-11T08:09:21.164Z,18.77
2016-04-11T08:10:21.200Z,18.97
2016-04-11T08:11:21.217Z,18.49
2016-04-11T08:12:21.235Z,18.68
2016-04-11T08:13:21.269Z,18.49
2016-04-11T08:14:21.303Z,18.97
2016-04-11T08:15:21.353Z,18.77
2016-04-11T08:16:21.355Z,18.97
2016-04-11T08:17:21.389Z,18.68
2016-04-11T08:18:21.413Z,18.49
2016-04-11T08:19:21.431Z,18.68
2016-04-11T08:20:21.466Z,18.59
2016-04-11T08:21:21.483Z,18.49
2016-04-11T08:22:21.517Z,18.49
2016-04-11T08:23:21.551Z,18.49
2016-04-11T08:24:21.584Z,18.59
2016-04-11T08:25:21.666Z,18.39
2016-04-11T08:26:21.637Z,18.87
2016-04-11T08:27:21.656Z,18.39
2016-04-11T08:28:21.690Z,18.29
2016-04-11T08:29:21.708Z,18.1
2016-04-11T08:30:21.742Z,18.1
2016-04-11T08:31:21.760Z,18.19
2016-04-11T08:32:21.795Z,18.39
2016-04-11T08:33:21.828Z,18.49
2016-04-11T08:34:21.847Z,18.39
2016-04-11T08:35:21.725Z,18.39
2016-04-11T08:36:21.898Z,18.39
2016-04-11T08:37:21.933Z,18.19
2016-04-11T08:38:21.951Z,18.29
2016-04-11T08:39:21.985Z,18.39
2016-04-11T08:40:22.019Z,18.19
2016-04-11T08:41:22.053Z,18.29
2016-04-11T08:42:22.071Z,18.19
2016-04-11T08:43:22.230Z,18.49
2016-04-11T08:44:22.124Z,18.19
2016-04-11T08:45:22.157Z,18.29
2016-04-11T08:46:22.175Z,18.29
2016-04-11T08:47:22.210Z,18.39
2016-04-11T08:48:22.227Z,18.19
2016-04-11T08:49:22.293Z,18.28
2016-04-11T08:50:22.311Z,18.39
2016-04-11T08:51:22.330Z,18.59
2016-04-11T08:52:22.363Z,18.49
2016-04-11T08:53:22.381Z,18.39
2016-04-11T08:54:22.416Z,18.39
2016-04-11T08:55:22.434Z,18.29
2016-04-11T08:56:22.452Z,18.39
2016-04-11T08:57:22.486Z,18.39
2016-04-11T08:58:22.536Z,18.39
2016-04-11T08:59:22.539Z,18.49
2016-04-11T09:00:22.556Z,18.49
2016-04-11T09:01:22.591Z,18.39
2016-04-11T09:02:22.625Z,18.59
2016-04-11T09:03:22.659Z,18.39
2016-04-11T09:04:22.708Z,18.59
2016-04-11T09:05:22.695Z,18.49
2016-04-11T09:06:22.729Z,18.68
2016-04-11T09:07:22.747Z,18.68
2016-04-11T09:08:22.781Z,18.87
2016-04-11T09:09:22.816Z,18.77
2016-04-11T09:10:22.850Z,18.68
2016-04-11T09:11:22.852Z,18.49
2016-04-11T09:12:22.886Z,18.68
2016-04-11T09:13:22.983Z,18.77
2016-04-11T09:14:22.954Z,18.77
2016-04-11T09:15:23.003Z,18.68
2016-04-11T09:16:23.006Z,18.77
2016-04-11T09:17:23.024Z,18.68
2016-04-11T09:18:23.090Z,18.68
2016-04-11T09:19:23.093Z,18.77
2016-04-11T09:20:23.110Z,18.77
2016-04-11T09:21:23.144Z,18.59
2016-04-11T09:22:23.163Z,18.77
2016-04-11T09:23:23.197Z,18.77
2016-04-11T09:24:23.231Z,18.77
2016-04-11T09:25:23.265Z,18.77
2016-04-11T09:26:23.283Z,18.59
2016-04-11T09:27:23.317Z,18.68
2016-04-11T09:28:23.445Z,18.68
2016-04-11T09:29:23.354Z,18.87
2016-04-11T09:30:23.388Z,18.87
2016-04-11T09:31:23.421Z,18.87
2016-04-11T09:32:23.456Z,18.97
2016-04-11T09:33:23.520Z,18.77
2016-04-11T09:34:23.492Z,18.87
2016-04-11T09:35:23.526Z,18.77
2016-04-11T09:36:23.560Z,18.59
2016-04-11T09:37:23.609Z,18.87
2016-04-11T09:38:23.612Z,18.68
2016-04-11T09:39:23.678Z,18.87
2016-04-11T09:40:23.664Z,18.68
2016-04-11T09:41:23.698Z,18.68
2016-04-11T09:42:23.716Z,18.77
2016-04-11T09:43:24.017Z,18.97
2016-04-11T09:44:23.785Z,18.97
2016-04-11T09:45:23.802Z,18.77
2016-04-11T09:46:23.836Z,18.77
2016-04-11T09:47:23.855Z,18.77
2016-04-11T09:48:23.889Z,18.97
2016-04-11T09:49:23.924Z,18.97
2016-04-11T09:50:23.941Z,18.77
2016-04-11T09:51:24.038Z,18.97
2016-04-11T09:52:24.010Z,18.87
2016-04-11T09:53:24.027Z,18.97
2016-04-11T09:54:24.062Z,18.77
2016-04-11T09:55:24.079Z,18.77
2016-04-11T09:56:24.114Z,18.77
2016-04-11T09:57:24.195Z,18.97
2016-04-11T09:58:24.165Z,18.77
2016-04-11T09:59:24.184Z,18.77
2016-04-11T10:00:24.218Z,18.87
2016-04-11T10:01:24.299Z,18.77
2016-04-11T10:02:24.270Z,18.87
2016-04-11T10:03:24.304Z,18.68
2016-04-11T10:04:24.322Z,18.77
2016-04-11T10:05:24.357Z,18.77
2016-04-11T10:06:24.390Z,18.77
2016-04-11T10:07:24.409Z,18.77
2016-04-11T10:08:24.458Z,18.77
2016-04-11T10:09:24.462Z,18.97
2016-04-11T10:10:24.495Z,18.87
2016-04-11T10:11:23.795Z,18.77
2016-04-11T10:12:24.547Z,18.77
2016-04-11T10:13:24.472Z,18.97
2016-04-11T10:14:24.599Z,18.77
2016-04-11T10:15:24.649Z,18.77
2016-04-11T10:16:24.667Z,18.77
2016-04-11T10:17:24.701Z,18.77
2016-04-11T10:18:24.719Z,18.97
2016-04-11T10:19:24.738Z,18.97
2016-04-11T10:20:24.772Z,18.87
2016-04-11T10:21:24.790Z,18.97
2016-04-11T10:22:24.824Z,18.77
2016-04-11T10:23:24.858Z,18.87
2016-04-11T10:24:24.876Z,18.97
2016-04-11T10:25:24.910Z,18.68
2016-04-11T10:26:24.929Z,18.77
2016-04-11T10:27:24.962Z,18.87
2016-04-11T10:28:25.294Z,18.87
2016-04-11T10:29:25.015Z,18.77
2016-04-11T10:30:25.049Z,18.68
2016-04-11T10:31:25.082Z,18.97
2016-04-11T10:32:25.117Z,18.68
2016-04-11T10:33:25.135Z,18.97
2016-04-11T10:34:25.154Z,18.97
2016-04-11T10:35:25.203Z,18.87
2016-04-11T10:36:25.221Z,18.97
2016-04-11T10:37:25.239Z,18.68
2016-04-11T10:38:25.289Z,18.68
2016-04-11T10:39:25.308Z,19.07
2016-04-11T10:40:25.389Z,18.68
2016-04-11T10:41:25.359Z,18.87
2016-04-11T10:42:25.378Z,18.97
2016-04-11T10:43:25.444Z,18.87
2016-04-11T10:44:25.430Z,18.77
2016-04-11T10:45:25.464Z,18.77
2016-04-11T10:46:25.498Z,18.68
2016-04-11T10:47:25.516Z,18.77
2016-04-11T10:48:25.550Z,18.68
2016-04-11T10:49:25.569Z,18.77
2016-04-11T10:50:25.602Z,18.77
2016-04-11T10:51:25.621Z,18.77
2016-04-11T10:52:25.686Z,18.87
2016-04-11T10:53:25.674Z,18.87
2016-04-11T10:54:25.723Z,18.87
2016-04-11T10:55:25.741Z,18.77
2016-04-11T10:56:25.774Z,18.87
2016-04-11T10:57:25.810Z,18.77
2016-04-11T10:58:25.812Z,18.77
2016-04-11T10:59:25.862Z,18.77
2016-04-11T11:00:25.879Z,18.97
2016-04-11T11:01:25.913Z,18.87
2016-04-11T11:02:25.947Z,18.68
2016-04-11T11:03:25.982Z,18.77
2016-04-11T11:04:25.985Z,18.77
2016-04-11T11:05:26.018Z,18.87
2016-04-11T11:06:26.036Z,18.77
2016-04-11T11:07:26.070Z,18.77
2016-04-11T11:08:26.103Z,18.87
2016-04-11T11:09:26.139Z,18.87
2016-04-11T11:10:26.157Z,18.97
2016-04-11T11:11:26.190Z,18.68
2016-04-11T11:12:26.208Z,18.87
2016-04-11T11:13:26.259Z,18.68
2016-04-11T11:14:26.261Z,18.68
2016-04-11T11:15:26.280Z,18.68
2016-04-11T11:16:26.328Z,18.68
2016-04-11T11:17:26.348Z,18.59
2016-04-11T11:18:26.381Z,18.87
2016-04-11T11:19:26.399Z,18.97
2016-04-11T11:20:26.433Z,18.87
2016-04-11T11:21:26.467Z,18.68
2016-04-11T11:22:26.501Z,18.77
2016-04-11T11:23:26.504Z,18.68
2016-04-11T11:24:26.538Z,18.97
2016-04-11T11:25:26.572Z,18.97
2016-04-11T11:26:26.434Z,18.77
2016-04-11T11:27:26.624Z,18.77
2016-04-11T11:28:26.643Z,18.77
2016-04-11T11:29:26.677Z,18.68
2016-04-11T11:30:26.710Z,18.77
2016-04-11T11:31:26.729Z,18.68
2016-04-11T11:32:26.762Z,18.59
2016-04-11T11:33:26.796Z,18.77
2016-04-11T11:34:26.830Z,18.68
2016-04-11T11:35:26.848Z,18.68
2016-04-11T11:36:26.867Z,18.59
2016-04-11T11:37:26.932Z,18.87
2016-04-11T11:38:26.935Z,18.59
2016-04-11T11:39:27.000Z,18.77
2016-04-11T11:40:27.034Z,18.49
2016-04-11T11:41:27.006Z,18.77
2016-04-11T11:42:27.055Z,18.59
2016-04-11T11:43:27.073Z,18.77
2016-04-11T11:44:27.092Z,18.59
2016-04-11T11:45:27.142Z,18.59
2016-04-11T11:46:27.144Z,18.77
2016-04-11T11:47:27.209Z,18.59
2016-04-11T11:48:27.228Z,18.68
2016-04-11T11:49:27.230Z,18.59
2016-04-11T11:50:27.249Z,18.68
2016-04-11T11:51:27.344Z,18.68
2016-04-11T11:52:27.333Z,18.68
2016-04-11T11:53:27.350Z,18.77
2016-04-11T11:54:27.369Z,18.68
2016-04-11T11:55:27.387Z,18.49
2016-04-11T11:56:27.436Z,18.59
2016-04-11T11:57:27.455Z,18.68
2016-04-11T11:58:27.473Z,18.68
2016-04-11T11:59:27.507Z,18.77
2016-04-11T12:00:27.525Z,18.59
2016-04-11T12:01:27.560Z,18.59
2016-04-11T12:02:27.609Z,18.59
2016-04-11T12:03:27.626Z,18.49
2016-04-11T12:04:27.646Z,18.59
2016-04-11T12:05:27.680Z,18.59
2016-04-11T12:06:27.713Z,18.87
2016-04-11T12:07:27.747Z,18.87
2016-04-11T12:08:27.751Z,18.97
2016-04-11T12:09:27.783Z,18.59
2016-04-11T12:10:27.803Z,18.49
2016-04-11T12:11:27.836Z,18.87
2016-04-11T12:12:27.854Z,18.87
2016-04-11T12:13:27.889Z,18.97
2016-04-11T12:14:27.907Z,18.97
2016-04-11T12:15:27.956Z,18.97
2016-04-11T12:16:27.989Z,19.07
2016-04-11T12:17:27.993Z,18.97
2016-04-11T12:18:28.042Z,18.68
2016-04-11T12:19:28.061Z,18.77
2016-04-11T12:20:28.094Z,18.77
2016-04-11T12:21:28.113Z,18.68
2016-04-11T12:22:28.147Z,18.68
2016-04-11T12:23:28.166Z,18.97
2016-04-11T12:24:28.199Z,19.07
2016-04-11T12:25:28.264Z,18.77
2016-04-11T12:26:28.252Z,19.26
2016-04-11T12:27:28.269Z,19.26
2016-04-11T12:28:28.319Z,19.07
2016-04-11T12:29:28.337Z,19.17
2016-04-11T12:30:28.357Z,19.45
2016-04-11T12:31:28.390Z,19.74
2016-04-11T12:32:28.424Z,20.03
2016-04-11T12:33:28.457Z,19.84
2016-04-11T12:34:28.507Z,20.03
2016-04-11T12:35:28.510Z,19.84
2016-04-11T12:36:28.543Z,19.84
2016-04-11T12:37:28.562Z,20.03
2016-04-11T12:38:28.612Z,19.94
2016-04-11T12:39:28.631Z,20.03
2016-04-11T12:40:28.665Z,20.03
2016-04-11T12:41:28.682Z,20.13
2016-04-11T12:42:28.716Z,20.13
2016-04-11T12:43:28.734Z,20.03
2016-04-11T12:44:28.769Z,19.84
2016-04-11T12:45:28.787Z,20.03
2016-04-11T12:46:28.820Z,20.03
2016-04-11T12:47:28.839Z,20.03
2016-04-11T12:48:28.872Z,20.03
2016-04-11T12:49:28.923Z,20.23
2016-04-11T12:50:28.926Z,20.13
2016-04-11T12:51:28.944Z,20.13
2016-04-11T12:52:28.978Z,20.23
2016-04-11T12:53:28.996Z,20.13
2016-04-11T12:54:29.030Z,20.13
2016-04-11T12:55:29.063Z,20.13
2016-04-11T12:56:29.082Z,20.03
2016-04-11T12:57:29.116Z,20.23
2016-04-11T12:58:29.134Z,19.94